Time;durP1;ratioP1;P1;durP2;ratioP2;P2;SDS_P1;SDS_P2;PMS_P1;PMS_P2;Temp;Humidity;BMP_temperature;BMP_pressure;BME280_temperature;BME280_humidity;BME280_pressure;Samples;Min_cycle;Max_cycle;Signal;HPM_P1;HPM_P2
2023/08/08 00:01:13;;;;;;;1.27;1.17;;;19.50;68.70;;;;;;5054004;28;20703;-65
2023/08/08 00:03:38;;;;;;;1.50;1.40;;;19.50;68.70;;;;;;5054705;28;20193;-65
2023/08/08 00:06:04;;;;;;;1.35;1.25;;;19.40;68.70;;;;;;5053597;28;20566;-64
2023/08/08 00:08:29;;;;;;;1.27;1.17;;;19.50;68.80;;;;;;5054209;28;20634;-64
2023/08/08 00:10:55;;;;;;;1.90;1.20;;;19.50;68.80;;;;;;5054334;28;20266;-63
2023/08/08 00:13:20;;;;;;;1.95;1.48;;;19.50;68.80;;;;;;5053526;28;20206;-63
2023/08/08 00:15:46;;;;;;;1.85;1.33;;;19.40;68.70;;;;;;5054104;28;20254;-64
2023/08/08 00:18:11;;;;;;;1.30;1.20;;;19.50;68.80;;;;;;5054056;28;20195;-64
2023/08/08 00:20:37;;;;;;;1.05;1.05;;;19.50;68.80;;;;;;5053114;28;20199;-64
2023/08/08 00:23:03;;;;;;;1.58;1.13;;;19.40;68.70;;;;;;5053928;28;20225;-64
2023/08/08 00:25:28;;;;;;;1.83;1.45;;;19.40;68.80;;;;;;5054019;28;20171;-63
2023/08/08 00:27:54;;;;;;;1.05;0.98;;;19.40;68.80;;;;;;5053030;28;20277;-63
2023/08/08 00:30:19;;;;;;;1.00;1.00;;;19.40;68.80;;;;;;5053588;28;20268;-63
2023/08/08 00:32:45;;;;;;;2.03;1.48;;;19.40;68.80;;;;;;5053894;28;20206;-64
2023/08/08 00:35:11;;;;;;;2.00;1.77;;;19.40;68.80;;;;;;5052927;28;20539;-65
2023/08/08 00:37:36;;;;;;;1.55;1.45;;;19.40;68.80;;;;;;5053789;28;20309;-65
2023/08/08 00:40:02;;;;;;;2.25;1.38;;;19.40;68.80;;;;;;5053366;28;20186;-64
2023/08/08 00:42:27;;;;;;;1.60;1.50;;;19.40;68.80;;;;;;5052727;28;20360;-64
2023/08/08 00:44:53;;;;;;;1.40;1.30;;;19.40;68.80;;;;;;5053617;28;20630;-64
2023/08/08 00:47:18;;;;;;;1.50;1.40;;;19.40;68.80;;;;;;5052730;28;20641;-64
2023/08/08 00:49:46;;;;;;;1.48;1.38;;;19.40;68.90;;;;;;5052219;28;20215;-64
2023/08/08 00:52:11;;;;;;;2.05;1.40;;;19.40;68.80;;;;;;5053346;28;20185;-63
2023/08/08 00:54:37;;;;;;;1.42;1.20;;;19.40;68.80;;;;;;5052906;28;20265;-63
2023/08/08 00:57:03;;;;;;;1.50;1.40;;;19.40;68.80;;;;;;5053216;28;20598;-63
2023/08/08 00:59:28;;;;;;;1.25;1.10;;;19.40;68.80;;;;;;5053368;28;20197;-64
2023/08/08 01:01:54;;;;;;;2.45;1.30;;;19.40;68.90;;;;;;5051659;28;20218;-64
2023/08/08 01:04:19;;;;;;;1.55;1.45;;;19.40;68.90;;;;;;5053157;28;20203;-65
2023/08/08 01:06:51;;;;;;;1.42;1.33;;;19.40;68.90;;;;;;5053321;28;20679;-64
2023/08/08 01:09:24;;;;;;;1.83;1.30;;;19.40;68.90;;;;;;5050935;28;20214;-64
2023/08/08 01:11:49;;;;;;;1.35;1.25;;;19.40;68.90;;;;;;5035613;28;20183;-63
2023/08/08 01:14:15;;;;;;;1.50;1.40;;;19.30;68.80;;;;;;5051550;28;20806;-63
2023/08/08 01:16:41;;;;;;;1.60;1.33;;;19.40;68.80;;;;;;5051393;28;20172;-63
2023/08/08 01:19:07;;;;;;;1.70;1.60;;;19.30;68.80;;;;;;5035190;28;20547;-63
2023/08/08 01:21:32;;;;;;;1.85;1.40;;;19.40;68.90;;;;;;5051851;28;20167;-63
2023/08/08 01:24:22;;;;;;;1.33;1.23;;;19.30;68.90;;;;;;5034342;28;20545;-63
2023/08/08 01:26:47;;;;;;;1.40;1.25;;;19.30;68.90;;;;;;5051917;28;20179;-63
2023/08/08 01:29:13;;;;;;;1.98;1.42;;;19.30;68.90;;;;;;5051398;28;20195;-63
2023/08/08 01:31:38;;;;;;;0.93;0.93;;;19.30;68.90;;;;;;5052337;28;20195;-64
2023/08/08 01:34:04;;;;;;;1.30;1.20;;;19.40;68.90;;;;;;5051660;28;20171;-64
2023/08/08 01:36:32;;;;;;;1.30;1.20;;;19.30;68.90;;;;;;5050853;28;20175;-65
2023/08/08 01:39:03;;;;;;;1.40;1.30;;;19.30;68.90;;;;;;5051211;28;20229;-64
2023/08/08 01:41:30;;;;;;;1.42;1.33;;;19.30;68.90;;;;;;5035750;28;20187;-64
2023/08/08 01:43:55;;;;;;;1.98;1.50;;;19.30;68.90;;;;;;5051957;28;20259;-64
2023/08/08 01:46:24;;;;;;;1.40;1.30;;;19.30;68.90;;;;;;5051591;28;20257;-64
2023/08/08 01:48:50;;;;;;;1.52;1.13;;;19.30;68.90;;;;;;5051249;28;20310;-64
2023/08/08 01:51:15;;;;;;;1.40;1.30;;;19.30;68.90;;;;;;5051467;28;20249;-63
2023/08/08 01:53:41;;;;;;;1.83;1.52;;;19.30;68.90;;;;;;5052375;28;20187;-63
2023/08/08 01:56:06;;;;;;;1.95;1.35;;;19.30;68.90;;;;;;5051092;28;20178;-63
2023/08/08 01:58:32;;;;;;;1.48;1.17;;;19.30;68.90;;;;;;5051819;28;20179;-64
2023/08/08 02:01:00;;;;;;;1.38;1.27;;;19.30;68.90;;;;;;5052301;28;20171;-65
2023/08/08 02:03:26;;;;;;;1.48;1.27;;;19.30;68.90;;;;;;5052467;28;20179;-64
2023/08/08 02:05:51;;;;;;;1.58;1.33;;;19.30;68.90;;;;;;5051617;28;20181;-64
2023/08/08 02:08:18;;;;;;;1.40;1.30;;;19.30;69.80;;;;;;5052072;28;20203;-64
2023/08/08 02:10:43;;;;;;;1.30;1.20;;;19.30;69.00;;;;;;5052489;28;20210;-63
2023/08/08 02:13:09;;;;;;;1.13;1.10;;;19.30;69.00;;;;;;5051471;28;20258;-63
2023/08/08 02:15:34;;;;;;;2.47;1.17;;;19.30;68.90;;;;;;5052150;28;20182;-64
2023/08/08 02:18:00;;;;;;;1.85;1.50;;;19.30;69.00;;;;;;5052061;28;20178;-63
2023/08/08 02:20:26;;;;;;;1.60;1.50;;;19.30;69.00;;;;;;5051575;28;20186;-63
2023/08/08 02:22:51;;;;;;;1.65;1.50;;;19.20;68.90;;;;;;5052135;28;20176;-63
2023/08/08 02:25:17;;;;;;;1.70;1.20;;;19.20;68.90;;;;;;5051807;28;20537;-63
2023/08/08 02:27:43;;;;;;;1.40;1.30;;;19.20;68.90;;;;;;5051746;28;20179;-63
2023/08/08 02:30:09;;;;;;;1.60;1.50;;;19.20;68.90;;;;;;5052032;28;20262;-63
2023/08/08 02:32:34;;;;;;;1.30;1.20;;;19.30;69.00;;;;;;5052251;28;20589;-64
2023/08/08 02:35:00;;;;;;;1.55;1.30;;;19.20;68.90;;;;;;5051165;28;20171;-64
2023/08/08 02:37:28;;;;;;;1.15;1.10;;;19.20;68.90;;;;;;5052048;28;20546;-65
2023/08/08 02:39:54;;;;;;;2.40;1.60;;;19.20;68.90;;;;;;5051481;28;20185;-64
2023/08/08 02:42:19;;;;;;;1.48;1.38;;;19.20;68.90;;;;;;5051487;28;20226;-64
2023/08/08 02:44:45;;;;;;;2.15;1.40;;;19.20;68.90;;;;;;5054021;28;20179;-64
2023/08/08 02:47:10;;;;;;;1.73;1.30;;;19.20;69.00;;;;;;5054691;28;20194;-64
2023/08/08 02:49:36;;;;;;;1.40;1.17;;;19.20;69.00;;;;;;5055778;28;20249;-64
2023/08/08 02:52:02;;;;;;;1.67;1.50;;;19.20;69.00;;;;;;5055420;28;20696;-63
2023/08/08 02:54:27;;;;;;;1.20;1.10;;;19.20;69.00;;;;;;5055223;28;20179;-63
2023/08/08 02:56:53;;;;;;;1.30;1.17;;;19.20;69.00;;;;;;5055974;28;20622;-63
2023/08/08 02:59:18;;;;;;;1.58;1.48;;;19.20;69.00;;;;;;5055462;28;20179;-64
2023/08/08 03:01:45;;;;;;;1.25;1.17;;;19.20;69.00;;;;;;5055045;28;20535;-64
2023/08/08 03:04:10;;;;;;;1.48;1.38;;;19.20;69.00;;;;;;5055314;28;20224;-64
2023/08/08 03:06:36;;;;;;;1.58;1.17;;;19.20;69.00;;;;;;5055504;28;20712;-64
2023/08/08 03:09:01;;;;;;;1.50;1.40;;;19.20;69.00;;;;;;5054423;28;20570;-63
2023/08/08 03:11:27;;;;;;;1.48;1.20;;;19.20;69.00;;;;;;5055581;28;20688;-63
2023/08/08 03:13:52;;;;;;;1.27;1.17;;;19.20;69.10;;;;;;5055416;28;20175;-63
2023/08/08 03:16:18;;;;;;;1.50;1.40;;;19.20;69.00;;;;;;5054400;28;20555;-63
2023/08/08 03:18:43;;;;;;;1.98;1.30;;;19.20;69.10;;;;;;5055300;28;20197;-63
2023/08/08 03:21:09;;;;;;;2.17;1.17;;;19.20;69.10;;;;;;5054947;28;20198;-63
2023/08/08 03:23:34;;;;;;;1.60;1.50;;;19.20;69.10;;;;;;5054836;28;20167;-63
2023/08/08 03:26:00;;;;;;;2.13;1.30;;;19.20;69.00;;;;;;5055032;28;20180;-63
2023/08/08 03:28:25;;;;;;;1.40;1.30;;;19.20;69.10;;;;;;5055221;28;20276;-63
2023/08/08 03:30:51;;;;;;;1.85;1.35;;;19.20;69.10;;;;;;5054634;28;20197;-64
2023/08/08 03:33:17;;;;;;;1.40;1.30;;;19.20;69.10;;;;;;5054752;28;20167;-64
2023/08/08 03:35:43;;;;;;;1.50;1.20;;;19.20;69.20;;;;;;5054963;28;20175;-65
2023/08/08 03:38:09;;;;;;;1.40;1.30;;;19.10;69.90;;;;;;5053885;28;20175;-64
2023/08/08 03:40:34;;;;;;;1.77;1.60;;;19.10;69.00;;;;;;5054973;28;20189;-64
2023/08/08 03:43:00;;;;;;;1.83;1.23;;;19.20;69.10;;;;;;5054123;28;20728;-64
2023/08/08 03:45:29;;;;;;;2.25;1.35;;;19.20;69.20;;;;;;5054667;28;20217;-64
2023/08/08 03:47:54;;;;;;;1.73;1.50;;;19.20;69.10;;;;;;5054851;28;20201;-64
2023/08/08 03:50:20;;;;;;;1.45;1.35;;;19.20;69.10;;;;;;5053784;28;20214;-64
2023/08/08 03:52:45;;;;;;;1.98;1.50;;;19.10;69.20;;;;;;5055050;28;20521;-63
2023/08/08 03:55:14;;;;;;;1.42;1.33;;;19.10;69.10;;;;;;5053845;28;20734;-63
2023/08/08 03:57:39;;;;;;;1.38;1.27;;;19.10;69.10;;;;;;5053756;28;20225;-63
2023/08/08 04:00:08;;;;;;;2.33;1.50;;;19.10;69.10;;;;;;5054293;28;20533;-64
2023/08/08 04:02:33;;;;;;;1.85;1.40;;;19.10;69.10;;;;;;5054508;28;20175;-64
2023/08/08 04:04:59;;;;;;;1.48;1.38;;;19.10;69.10;;;;;;5053436;28;20325;-64
2023/08/08 04:07:24;;;;;;;1.33;1.23;;;19.10;69.10;;;;;;5054392;28;20252;-64
2023/08/08 04:09:50;;;;;;;2.00;1.25;;;19.10;69.10;;;;;;5054301;28;20219;-63
2023/08/08 04:12:15;;;;;;;1.50;1.40;;;19.10;69.10;;;;;;5053191;28;20179;-63
2023/08/08 04:14:41;;;;;;;1.60;1.50;;;19.10;69.10;;;;;;5054440;28;20266;-63
2023/08/08 04:17:06;;;;;;;1.30;1.20;;;19.10;69.20;;;;;;5054015;28;20569;-63
2023/08/08 04:19:32;;;;;;;1.75;1.60;;;19.10;69.10;;;;;;5053449;28;20171;-63
2023/08/08 04:21:58;;;;;;;1.63;1.50;;;19.10;69.10;;;;;;5054160;28;20492;-63
2023/08/08 04:24:23;;;;;;;1.95;1.35;;;19.10;69.20;;;;;;5053927;28;20211;-63
2023/08/08 04:26:49;;;;;;;1.70;1.30;;;19.10;69.50;;;;;;5053292;28;20171;-63
2023/08/08 04:29:14;;;;;;;2.88;1.50;;;19.10;69.10;;;;;;5053559;28;20211;-63
2023/08/08 04:31:40;;;;;;;1.33;1.23;;;19.00;69.10;;;;;;5053988;28;20258;-64
2023/08/08 04:34:05;;;;;;;1.20;1.10;;;19.10;69.20;;;;;;5052759;28;20506;-64
2023/08/08 04:36:31;;;;;;;1.30;1.20;;;19.10;69.10;;;;;;5054044;28;20249;-64
2023/08/08 04:38:56;;;;;;;2.50;1.20;;;19.10;69.20;;;;;;5053552;28;20209;-64
2023/08/08 04:41:22;;;;;;;1.60;1.50;;;19.10;69.20;;;;;;5052959;28;20201;-64
2023/08/08 04:43:47;;;;;;;2.15;1.25;;;19.10;69.20;;;;;;5053509;28;20277;-64
2023/08/08 04:46:13;;;;;;;1.50;1.40;;;19.10;69.30;;;;;;5053407;28;20645;-63
2023/08/08 04:48:39;;;;;;;1.52;1.42;;;19.10;69.30;;;;;;5052867;28;20673;-64
2023/08/08 04:51:05;;;;;;;1.88;1.40;;;19.10;69.20;;;;;;5053402;28;20529;-64
2023/08/08 04:53:30;;;;;;;1.20;1.10;;;19.10;69.30;;;;;;5053028;28;20175;-63
2023/08/08 04:55:56;;;;;;;1.40;1.30;;;19.10;69.30;;;;;;5053507;28;20530;-63
2023/08/08 04:58:21;;;;;;;2.65;1.50;;;19.10;69.30;;;;;;5053574;28;20167;-63
2023/08/08 05:00:47;;;;;;;1.23;1.13;;;19.10;69.40;;;;;;5052749;28;20266;-65
2023/08/08 05:03:12;;;;;;;1.38;1.27;;;19.10;69.30;;;;;;5052896;28;20179;-64
2023/08/08 05:05:38;;;;;;;1.40;1.30;;;19.10;69.20;;;;;;5053499;28;20178;-64
2023/08/08 05:08:04;;;;;;;1.42;1.33;;;19.10;69.30;;;;;;5052335;28;20201;-63
2023/08/08 05:10:31;;;;;;;1.77;1.35;;;19.10;69.30;;;;;;5053126;28;20309;-63
2023/08/08 05:12:56;;;;;;;1.90;1.55;;;19.10;69.30;;;;;;5053095;28;20179;-63
2023/08/08 05:15:22;;;;;;;1.75;1.30;;;19.10;69.30;;;;;;5052314;28;20582;-63
2023/08/08 05:17:48;;;;;;;1.48;1.30;;;19.10;69.40;;;;;;5053022;28;20167;-63
2023/08/08 05:20:13;;;;;;;1.35;1.25;;;19.10;70.20;;;;;;5052640;28;20265;-64
2023/08/08 05:22:39;;;;;;;1.98;1.50;;;19.10;69.30;;;;;;5052420;28;20175;-63
2023/08/08 05:25:05;;;;;;;2.88;1.60;;;19.10;69.40;;;;;;5052822;28;20209;-63
2023/08/08 05:27:30;;;;;;;1.80;1.40;;;19.10;69.40;;;;;;5053067;28;20179;-63
2023/08/08 05:29:56;;;;;;;1.77;1.50;;;19.10;69.40;;;;;;5051849;28;20199;-63
2023/08/08 05:32:21;;;;;;;1.50;1.27;;;19.10;69.20;;;;;;5052736;28;20206;-64
2023/08/08 05:34:49;;;;;;;1.60;1.50;;;19.20;69.30;;;;;;5052961;28;20222;-65
2023/08/08 05:37:14;;;;;;;1.60;1.20;;;19.10;69.10;;;;;;5051972;28;20187;-64
2023/08/08 05:39:40;;;;;;;1.50;1.40;;;19.20;69.40;;;;;;5052727;28;20182;-64
2023/08/08 05:42:05;;;;;;;1.83;1.45;;;19.10;69.10;;;;;;5052160;28;20215;-64
2023/08/08 05:44:31;;;;;;;1.58;1.30;;;19.10;69.20;;;;;;5051728;28;20179;-64
2023/08/08 05:46:56;;;;;;;1.52;1.40;;;19.10;69.30;;;;;;5052267;28;20182;-64
2023/08/08 05:49:22;;;;;;;2.78;1.60;;;19.20;69.30;;;;;;5052258;28;20203;-63
2023/08/08 05:51:48;;;;;;;1.45;1.35;;;19.20;69.20;;;;;;5051921;28;20183;-63
2023/08/08 05:54:13;;;;;;;1.85;1.30;;;19.20;69.30;;;;;;5052426;28;20684;-63
2023/08/08 05:56:39;;;;;;;1.92;1.30;;;19.20;69.30;;;;;;5052058;28;20175;-65
2023/08/08 05:59:04;;;;;;;2.05;1.67;;;19.20;69.30;;;;;;5052225;28;20261;-64
2023/08/08 06:01:30;;;;;;;2.10;1.50;;;19.20;69.20;;;;;;5052402;28;20183;-64
2023/08/08 06:03:58;;;;;;;2.53;1.65;;;19.20;69.20;;;;;;5051544;28;20241;-64
2023/08/08 06:06:23;;;;;;;1.90;1.45;;;19.20;69.30;;;;;;5052163;28;20189;-64
2023/08/08 06:08:49;;;;;;;1.67;1.20;;;19.10;69.20;;;;;;5052360;28;20215;-63
2023/08/08 06:11:14;;;;;;;2.08;1.55;;;19.20;69.30;;;;;;5051370;28;20262;-63
2023/08/08 06:13:40;;;;;;;1.60;1.50;;;19.20;69.30;;;;;;5052451;28;20681;-63
2023/08/08 06:16:06;;;;;;;1.40;1.30;;;19.20;69.30;;;;;;5051927;28;20669;-63
2023/08/08 06:18:33;;;;;;;1.75;1.38;;;19.20;69.40;;;;;;5051525;28;20205;-63
2023/08/08 06:20:58;;;;;;;1.50;1.25;;;19.20;69.40;;;;;;5056292;28;20290;-63
2023/08/08 06:23:24;;;;;;;2.28;1.50;;;19.20;69.30;;;;;;5056333;28;20187;-63
2023/08/08 06:25:49;;;;;;;2.42;1.40;;;19.20;69.30;;;;;;5055673;28;20228;-63
2023/08/08 06:28:15;;;;;;;1.65;1.50;;;19.20;69.10;;;;;;5055936;28;20198;-63
2023/08/08 06:30:41;;;;;;;2.50;1.60;;;19.20;69.20;;;;;;5055943;28;20215;-63
2023/08/08 06:33:06;;;;;;;2.75;1.55;;;19.20;69.10;;;;;;5055068;28;20170;-64
2023/08/08 06:35:32;;;;;;;2.45;1.50;;;19.20;69.30;;;;;;5056257;28;20183;-65
2023/08/08 06:37:57;;;;;;;2.45;1.38;;;19.20;69.20;;;;;;5055962;28;20258;-66
2023/08/08 06:40:23;;;;;;;2.03;1.33;;;19.30;69.20;;;;;;5055286;28;20270;-64
2023/08/08 06:42:49;;;;;;;2.40;1.30;;;19.20;69.20;;;;;;5055731;28;20306;-64
2023/08/08 06:45:14;;;;;;;2.65;1.55;;;19.30;69.30;;;;;;5055440;28;20286;-64
2023/08/08 06:47:40;;;;;;;1.30;1.20;;;19.30;69.20;;;;;;5055239;28;20185;-65
2023/08/08 06:50:06;;;;;;;2.33;1.75;;;19.30;69.20;;;;;;5055284;28;20211;-63
2023/08/08 06:52:32;;;;;;;4.88;1.77;;;19.30;69.20;;;;;;5055989;28;20233;-63
2023/08/08 06:54:57;;;;;;;2.53;1.70;;;19.40;69.20;;;;;;5054896;28;20198;-63
2023/08/08 06:57:23;;;;;;;3.65;1.63;;;19.40;69.20;;;;;;5055564;28;20209;-64
2023/08/08 06:59:50;;;;;;;2.03;1.30;;;19.40;69.20;;;;;;5055607;28;20182;-65
2023/08/08 07:02:17;;;;;;;2.03;1.52;;;19.40;69.30;;;;;;5054519;28;20218;-64
2023/08/08 07:04:42;;;;;;;3.13;1.80;;;19.40;69.30;;;;;;5055737;28;20210;-65
2023/08/08 07:07:08;;;;;;;3.17;1.92;;;19.40;69.20;;;;;;5054552;28;20204;-65
2023/08/08 07:09:34;;;;;;;2.17;1.73;;;19.40;69.10;;;;;;5055553;28;20206;-64
2023/08/08 07:12:00;;;;;;;2.55;1.50;;;19.40;69.10;;;;;;5055316;28;20250;-63
2023/08/08 07:14:25;;;;;;;2.65;1.58;;;19.40;69.20;;;;;;5054709;28;20171;-63
2023/08/08 07:16:51;;;;;;;2.13;1.70;;;19.40;69.20;;;;;;5055284;28;20258;-64
2023/08/08 07:19:16;;;;;;;2.40;1.67;;;19.40;69.20;;;;;;5055039;28;20183;-64
2023/08/08 07:21:42;;;;;;;1.75;1.35;;;19.40;69.10;;;;;;5054705;28;20179;-64
2023/08/08 07:24:08;;;;;;;3.20;1.77;;;19.50;69.20;;;;;;5054987;28;20201;-64
2023/08/08 07:26:33;;;;;;;2.13;1.65;;;19.50;69.10;;;;;;5055261;28;20163;-63
2023/08/08 07:28:59;;;;;;;1.67;1.58;;;19.50;69.10;;;;;;5053918;28;20210;-63
2023/08/08 07:31:24;;;;;;;3.25;1.50;;;19.50;69.10;;;;;;5053917;28;20175;-64
2023/08/08 07:33:50;;;;;;;2.92;1.70;;;19.50;69.00;;;;;;5055223;28;20179;-64
2023/08/08 07:36:15;;;;;;;2.58;1.55;;;19.50;69.00;;;;;;5054105;28;20526;-65
2023/08/08 07:38:41;;;;;;;3.28;2.17;;;19.50;68.90;;;;;;5055073;28;20594;-66
2023/08/08 07:41:06;;;;;;;2.58;1.70;;;19.60;69.00;;;;;;5054358;28;20598;-64
2023/08/08 07:43:32;;;;;;;2.90;1.75;;;19.60;69.00;;;;;;5053953;28;20246;-63
2023/08/08 07:45:58;;;;;;;2.50;1.63;;;19.60;69.00;;;;;;5054462;28;20197;-63
2023/08/08 07:48:23;;;;;;;5.47;1.98;;;19.60;68.90;;;;;;5054711;28;20530;-63
2023/08/08 07:50:49;;;;;;;3.85;1.60;;;19.60;69.00;;;;;;5053661;28;20267;-63
2023/08/08 07:53:14;;;;;;;3.17;1.80;;;19.70;68.90;;;;;;5054565;28;20179;-65
2023/08/08 07:55:40;;;;;;;2.47;1.73;;;19.70;69.00;;;;;;5054772;28;20171;-62
2023/08/08 07:58:05;;;;;;;4.55;1.65;;;19.70;68.90;;;;;;5053148;28;20175;-61
2023/08/08 08:00:31;;;;;;;3.53;1.90;;;19.70;68.80;;;;;;5054469;28;20183;-63
2023/08/08 08:02:56;;;;;;;2.72;1.63;;;19.70;68.80;;;;;;5054670;28;20179;-63
2023/08/08 08:05:22;;;;;;;3.88;1.98;;;19.80;69.00;;;;;;5053407;28;20171;-66
2023/08/08 08:07:47;;;;;;;4.47;1.83;;;19.80;69.00;;;;;;5054471;28;20179;-62
2023/08/08 08:10:13;;;;;;;5.50;1.48;;;19.80;69.90;;;;;;5053880;28;20289;-63
2023/08/08 08:12:40;;;;;;;3.17;1.88;;;19.80;69.10;;;;;;5053086;28;20171;-63
2023/08/08 08:15:06;;;;;;;2.15;1.80;;;19.90;69.10;;;;;;5053403;28;20179;-63
2023/08/08 08:17:32;;;;;;;1.83;1.55;;;19.90;69.10;;;;;;5052968;28;20665;-63
2023/08/08 08:19:58;;;;;;;4.68;1.90;;;19.90;69.10;;;;;;5053615;28;20257;-64
2023/08/08 08:22:24;;;;;;;3.92;1.80;;;20.00;69.10;;;;;;5053755;28;20524;-64
2023/08/08 08:24:50;;;;;;;3.65;1.70;;;19.90;69.10;;;;;;5052949;28;20179;-63
2023/08/08 08:27:15;;;;;;;3.10;1.40;;;20.00;69.10;;;;;;5053274;28;20168;-64
2023/08/08 08:29:41;;;;;;;3.47;1.52;;;20.00;69.10;;;;;;5053338;28;20214;-64
2023/08/08 08:32:06;;;;;;;2.38;1.67;;;20.00;69.10;;;;;;5052421;28;20258;-63
2023/08/08 08:34:32;;;;;;;2.90;1.60;;;19.90;68.90;;;;;;5053162;28;20258;-64
2023/08/08 08:36:57;;;;;;;1.75;1.35;;;20.00;69.10;;;;;;5052949;28;20164;-64
2023/08/08 08:39:23;;;;;;;3.70;1.60;;;20.10;69.00;;;;;;5052343;28;20195;-64
2023/08/08 08:41:50;;;;;;;2.45;1.77;;;20.00;69.00;;;;;;5052585;28;20223;-63
2023/08/08 08:44:19;;;;;;;4.20;1.88;;;20.10;69.10;;;;;;5051950;28;20186;-65
2023/08/08 08:46:44;;;;;;;1.63;1.50;;;20.10;69.10;;;;;;5051979;28;20179;-63
2023/08/08 08:49:10;;;;;;;3.30;1.75;;;20.20;69.10;;;;;;5051666;28;20211;-64
2023/08/08 08:51:36;;;;;;;1.92;1.20;;;20.20;69.10;;;;;;5052464;28;20182;-62
2023/08/08 08:54:02;;;;;;;3.65;1.52;;;20.10;69.00;;;;;;5052401;28;20542;-62
2023/08/08 08:56:27;;;;;;;4.32;1.98;;;20.20;69.00;;;;;;5051973;28;20187;-64
2023/08/08 08:58:53;;;;;;;1.80;1.20;;;20.20;69.00;;;;;;5053170;28;20641;-62
2023/08/08 09:01:18;;;;;;;3.15;1.30;;;20.20;68.90;;;;;;5051284;28;20653;-63
2023/08/08 09:03:44;;;;;;;2.83;1.30;;;20.20;68.90;;;;;;5052237;28;20638;-63
2023/08/08 09:06:10;;;;;;;2.28;1.33;;;20.20;69.00;;;;;;5052974;28;20175;-63
2023/08/08 09:08:36;;;;;;;1.42;1.20;;;20.20;68.80;;;;;;5051346;28;20210;-62
2023/08/08 09:11:01;;;;;;;1.42;1.30;;;20.10;68.50;;;;;;5052800;28;20644;-62
2023/08/08 09:13:32;;;;;;;3.55;1.40;;;20.20;68.60;;;;;;5053050;28;20514;-62
2023/08/08 09:15:58;;;;;;;1.33;1.23;;;20.20;68.50;;;;;;5052296;28;20661;-61
2023/08/08 09:18:24;;;;;;;2.28;1.10;;;20.10;68.40;;;;;;5051963;28;20175;-62
2023/08/08 09:20:50;;;;;;;1.13;1.13;;;20.20;68.40;;;;;;5051992;28;20175;-61
2023/08/08 09:23:16;;;;;;;1.70;1.17;;;20.20;68.30;;;;;;5052655;28;20197;-62
2023/08/08 09:25:41;;;;;;;2.22;1.45;;;20.20;68.30;;;;;;5052971;28;20179;-61
2023/08/08 09:28:07;;;;;;;1.80;1.27;;;20.10;68.20;;;;;;5051652;28;20535;-62
2023/08/08 09:30:32;;;;;;;2.95;1.20;;;20.20;69.00;;;;;;5052440;28;20210;-61
2023/08/08 09:32:59;;;;;;;2.65;1.58;;;20.10;68.10;;;;;;5039851;28;20686;-62
2023/08/08 09:35:26;;;;;;;2.05;1.23;;;20.10;68.10;;;;;;5048479;28;20251;-62
2023/08/08 09:37:54;;;;;;;1.30;1.20;;;20.20;68.10;;;;;;5072888;28;20177;-62
2023/08/08 09:40:21;;;;;;;1.52;1.08;;;20.20;68.20;;;;;;5058877;28;20266;-62
2023/08/08 09:42:46;;;;;;;1.00;0.90;;;20.10;68.10;;;;;;5051827;28;20767;-62
2023/08/08 09:45:15;;;;;;;2.60;1.30;;;20.10;68.10;;;;;;5052409;28;20175;-63
2023/08/08 09:47:41;;;;;;;3.50;1.20;;;20.10;68.10;;;;;;5055861;28;20171;-62
2023/08/08 09:50:07;;;;;;;2.60;1.38;;;20.10;68.10;;;;;;5071394;28;20206;-62
2023/08/08 09:52:37;;;;;;;1.48;1.20;;;20.20;68.00;;;;;;5072463;28;20178;-61
2023/08/08 09:55:03;;;;;;;1.15;1.00;;;20.20;67.90;;;;;;5071388;28;20257;-62
2023/08/08 09:57:28;;;;;;;1.85;1.00;;;20.20;67.60;;;;;;5071539;28;20633;-61
2023/08/08 09:59:54;;;;;;;1.30;1.20;;;20.20;67.70;;;;;;5071153;28;20189;-62
2023/08/08 10:02:19;;;;;;;2.22;1.00;;;20.20;67.80;;;;;;5072197;28;20167;-62
2023/08/08 10:04:45;;;;;;;1.80;1.10;;;20.20;67.80;;;;;;5068186;28;20174;-62
2023/08/08 10:07:11;;;;;;;1.42;0.82;;;20.20;67.70;;;;;;5051940;28;20179;-62
2023/08/08 10:09:37;;;;;;;2.00;1.20;;;20.20;67.70;;;;;;5052147;28;20256;-61
2023/08/08 10:12:06;;;;;;;1.15;1.05;;;20.30;67.80;;;;;;5050162;28;20175;-61
2023/08/08 10:14:34;;;;;;;1.65;1.02;;;20.20;67.70;;;;;;5052145;28;20182;-63
2023/08/08 10:17:02;;;;;;;1.27;0.95;;;20.30;67.80;;;;;;5050222;28;20568;-61
2023/08/08 10:19:27;;;;;;;1.05;1.00;;;20.20;67.70;;;;;;5051120;28;20260;-62
2023/08/08 10:22:20;;;;;;;1.08;1.00;;;20.20;67.80;;;;;;5052264;28;20614;-61
2023/08/08 10:24:48;;;;;;;1.52;1.17;;;20.30;67.50;;;;;;5050260;28;20290;-61
2023/08/08 10:27:15;;;;;;;3.40;1.10;;;20.30;67.30;;;;;;5051895;28;20179;-61
2023/08/08 10:29:43;;;;;;;1.73;0.90;;;20.30;68.20;;;;;;5052150;28;20294;-61
2023/08/08 10:32:08;;;;;;;0.70;0.70;;;20.30;67.50;;;;;;5033096;28;20171;-62
2023/08/08 10:34:42;;;;;;;1.05;0.90;;;20.30;67.60;;;;;;5051969;28;20518;-62
2023/08/08 10:37:15;;;;;;;1.00;0.90;;;20.20;67.60;;;;;;5051839;28;20182;-62
2023/08/08 10:40:00;;;;;;;1.25;0.80;;;20.30;67.60;;;;;;5061310;28;20179;-63
2023/08/08 10:42:27;;;;;;;1.02;0.95;;;20.40;67.50;;;;;;5071825;28;20225;-62
2023/08/08 10:44:54;;;;;;;2.45;0.90;;;20.40;68.10;;;;;;5071674;28;20172;-62
2023/08/08 10:47:34;;;;;;;2.03;1.10;;;20.50;67.10;;;;;;5070712;28;20524;-62
2023/08/08 10:50:07;;;;;;;2.53;0.90;;;20.40;67.20;;;;;;5053193;28;20626;-62
2023/08/08 10:52:35;;;;;;;1.90;1.15;;;20.40;67.30;;;;;;5050645;28;20186;-61
2023/08/08 10:55:01;;;;;;;1.63;1.00;;;20.30;68.20;;;;;;5049753;28;20175;-61
2023/08/08 10:57:27;;;;;;;0.70;0.60;;;20.40;67.30;;;;;;5051280;28;20171;-61
2023/08/08 10:59:53;;;;;;;2.08;0.98;;;20.50;67.40;;;;;;5050955;28;20178;-61
2023/08/08 11:02:19;;;;;;;1.08;0.95;;;20.60;67.40;;;;;;5050249;28;20653;-62
2023/08/08 11:04:45;;;;;;;1.40;1.10;;;20.50;67.10;;;;;;5052322;28;20229;-62
2023/08/08 11:07:10;;;;;;;2.80;1.10;;;20.50;67.20;;;;;;5054424;28;20190;-62
2023/08/08 11:09:36;;;;;;;1.45;0.90;;;20.50;67.30;;;;;;5055243;28;20658;-62
2023/08/08 11:12:02;;;;;;;1.42;0.90;;;20.60;67.20;;;;;;5053727;28;20175;-61
2023/08/08 11:14:27;;;;;;;2.17;1.42;;;20.60;67.20;;;;;;5054483;28;20262;-61
2023/08/08 11:16:53;;;;;;;1.52;0.82;;;20.60;67.30;;;;;;5054908;28;20179;-61
2023/08/08 11:19:19;;;;;;;1.52;0.85;;;20.50;67.10;;;;;;5054852;28;20201;-62
2023/08/08 11:21:45;;;;;;;3.30;0.90;;;20.50;67.20;;;;;;5054431;28;20183;-62
2023/08/08 11:24:11;;;;;;;1.67;0.77;;;20.50;67.20;;;;;;5054721;28;20618;-62
2023/08/08 11:26:37;;;;;;;2.03;1.15;;;20.60;67.30;;;;;;5054981;28;20263;-62
2023/08/08 11:29:03;;;;;;;2.50;1.10;;;20.60;67.10;;;;;;5053893;28;20207;-62
2023/08/08 11:31:29;;;;;;;3.47;1.20;;;20.60;67.20;;;;;;5054892;28;20183;-63
2023/08/08 11:33:55;;;;;;;1.83;0.82;;;20.50;67.20;;;;;;5055027;28;20225;-63
2023/08/08 11:36:22;;;;;;;2.03;0.85;;;20.50;67.10;;;;;;5053971;28;20186;-63
2023/08/08 11:38:47;;;;;;;3.95;0.90;;;20.50;67.30;;;;;;5057227;28;20254;-64
2023/08/08 11:41:14;;;;;;;1.70;1.00;;;20.50;67.30;;;;;;5072756;28;20319;-63
2023/08/08 11:43:40;;;;;;;2.13;1.00;;;20.50;67.40;;;;;;5073884;28;20248;-63
2023/08/08 11:46:09;;;;;;;0.80;0.80;;;20.50;67.20;;;;;;5073337;28;20265;-63
2023/08/08 11:48:35;;;;;;;2.08;0.80;;;20.50;67.00;;;;;;5074260;28;20208;-63
2023/08/08 11:51:06;;;;;;;1.17;1.00;;;20.60;66.80;;;;;;5074131;28;20214;-62
2023/08/08 11:53:33;;;;;;;2.45;1.10;;;20.50;66.80;;;;;;5074583;28;20174;-62
2023/08/08 11:55:59;;;;;;;1.52;1.10;;;20.70;66.80;;;;;;5073393;28;20267;-62
2023/08/08 11:58:25;;;;;;;1.83;1.20;;;20.60;67.50;;;;;;5074804;28;20174;-63
2023/08/08 12:00:51;;;;;;;2.45;1.10;;;20.60;66.50;;;;;;5074152;28;20612;-62
2023/08/08 12:03:18;;;;;;;2.85;1.15;;;20.70;66.50;;;;;;5055598;28;20174;-62
2023/08/08 12:05:48;;;;;;;1.88;1.10;;;20.70;67.30;;;;;;5072951;28;20622;-63
2023/08/08 12:08:20;;;;;;;1.88;1.02;;;20.70;66.40;;;;;;5073771;28;20629;-62
2023/08/08 12:10:53;;;;;;;1.30;0.88;;;20.80;66.20;;;;;;5072541;28;20312;-62
2023/08/08 12:13:22;;;;;;;2.25;0.95;;;20.70;66.20;;;;;;5074078;28;20273;-61
2023/08/08 12:15:48;;;;;;;2.30;0.82;;;20.80;66.30;;;;;;5074424;28;20178;-61
2023/08/08 12:18:19;;;;;;;1.15;1.05;;;20.80;66.40;;;;;;5071186;28;20625;-62
2023/08/08 12:20:45;;;;;;;2.35;1.00;;;20.70;66.50;;;;;;5074050;28;20175;-62
2023/08/08 12:23:11;;;;;;;3.08;1.30;;;20.60;66.60;;;;;;5073611;28;20182;-61
2023/08/08 12:25:37;;;;;;;1.40;1.08;;;20.80;66.50;;;;;;5073113;28;20178;-61
2023/08/08 12:28:03;;;;;;;1.35;0.93;;;20.80;66.30;;;;;;5072405;28;20174;-61
2023/08/08 12:30:28;;;;;;;1.05;0.90;;;20.90;66.00;;;;;;5073781;28;20703;-62
2023/08/08 12:32:54;;;;;;;2.30;1.13;;;20.80;66.00;;;;;;5072914;28;20213;-62
2023/08/08 12:35:20;;;;;;;0.93;0.93;;;20.80;66.20;;;;;;5073273;28;20183;-63
2023/08/08 12:37:46;;;;;;;1.02;0.95;;;20.80;66.00;;;;;;5073172;28;20171;-63
2023/08/08 12:40:12;;;;;;;1.40;0.93;;;20.90;66.00;;;;;;5058891;28;20187;-62
2023/08/08 12:42:38;;;;;;;2.42;1.17;;;20.90;65.90;;;;;;5053506;28;20242;-62